Time;durP1;ratioP1;P1;durP2;ratioP2;P2;SDS_P1;SDS_P2;PMS_P1;PMS_P2;Temp;Humidity;BMP_temperature;BMP_pressure;BME280_temperature;BME280_humidity;BME280_pressure;Samples;Min_cycle;Max_cycle;Signal;HPM_P1;HPM_P2
2021/12/15 00:01:32;;;;;;;10.83;7.33;;;8.80;99.90;;;;;;5053811;28;20694;-41
2021/12/15 00:03:58;;;;;;;11.30;7.80;;;8.80;99.90;;;;;;5053741;28;20283;-43
2021/12/15 00:06:24;;;;;;;11.93;7.70;;;8.80;99.90;;;;;;5054053;28;20176;-41
2021/12/15 00:08:54;;;;;;;11.17;7.47;;;8.80;99.90;;;;;;5053724;28;20203;-43
2021/12/15 00:11:20;;;;;;;8.57;6.93;;;8.80;99.90;;;;;;5053893;28;20287;-43
2021/12/15 00:13:47;;;;;;;9.67;7.10;;;8.80;99.90;;;;;;5053544;28;20188;-42
2021/12/15 00:16:14;;;;;;;9.60;7.20;;;8.80;99.90;;;;;;5053827;28;20279;-40
2021/12/15 00:18:41;;;;;;;9.20;6.83;;;8.80;99.90;;;;;;5053915;28;20198;-42
2021/12/15 00:21:10;;;;;;;12.23;7.13;;;8.80;99.90;;;;;;5053745;28;20184;-41
2021/12/15 00:23:37;;;;;;;10.73;7.00;;;8.80;99.90;;;;;;5053534;28;20180;-43
2021/12/15 00:26:03;;;;;;;11.90;6.77;;;8.70;99.90;;;;;;5053473;28;20257;-45
2021/12/15 00:28:29;;;;;;;10.20;6.87;;;8.80;99.90;;;;;;5053536;28;20644;-41
2021/12/15 00:30:54;;;;;;;11.10;7.43;;;8.80;99.90;;;;;;5053765;28;20276;-43
2021/12/15 00:33:20;;;;;;;9.17;7.30;;;8.70;99.90;;;;;;5035527;28;20231;-43
2021/12/15 00:35:46;;;;;;;9.10;6.77;;;8.70;99.90;;;;;;5053633;28;20188;-42
2021/12/15 00:38:12;;;;;;;11.00;7.43;;;8.70;99.90;;;;;;5053574;28;20238;-43
2021/12/15 00:40:38;;;;;;;10.73;7.17;;;8.70;99.90;;;;;;5053327;28;20177;-43
2021/12/15 00:43:03;;;;;;;11.53;7.77;;;8.70;99.90;;;;;;5035379;28;20535;-44
2021/12/15 00:45:29;;;;;;;14.10;8.20;;;8.70;99.90;;;;;;5053239;28;20212;-43
2021/12/15 00:47:56;;;;;;;12.33;7.97;;;8.70;99.90;;;;;;5053549;28;20524;-45
2021/12/15 00:50:26;;;;;;;10.23;7.73;;;8.70;99.90;;;;;;5053212;28;20534;-41
2021/12/15 00:52:51;;;;;;;10.77;7.90;;;8.70;99.90;;;;;;5053375;28;20211;-44
2021/12/15 00:55:21;;;;;;;11.73;7.87;;;8.70;99.90;;;;;;5053191;28;20180;-45
2021/12/15 00:57:47;;;;;;;10.57;7.67;;;8.70;99.90;;;;;;5053402;28;20601;-44
2021/12/15 01:00:20;;;;;;;13.37;8.00;;;8.70;99.90;;;;;;5054579;28;20211;-41
2021/12/15 01:02:46;;;;;;;11.40;7.50;;;8.70;99.90;;;;;;5057395;28;20231;-44
2021/12/15 01:05:14;;;;;;;13.10;7.67;;;8.60;99.90;;;;;;5039265;28;20699;-42
2021/12/15 01:07:40;;;;;;;12.73;8.67;;;8.60;99.90;;;;;;5057400;28;20213;-44
2021/12/15 01:10:07;;;;;;;11.57;8.13;;;8.60;99.90;;;;;;5057276;28;20254;-44
2021/12/15 01:20:47;;;;;;;12.83;7.90;;;8.60;99.90;;;;;;5042706;28;20167;-43
2021/12/15 01:23:16;;;;;;;13.27;8.30;;;8.60;99.90;;;;;;5060415;28;20262;-47
2021/12/15 01:26:13;;;;;;;13.40;8.87;;;8.50;99.90;;;;;;5057035;28;20230;-48
2021/12/15 01:28:42;;;;;;;12.87;8.10;;;8.60;99.90;;;;;;5046424;28;20197;-46
2021/12/15 01:31:11;;;;;;;14.70;9.13;;;8.50;99.90;;;;;;5057110;28;20298;-48
2021/12/15 01:33:37;;;;;;;15.73;10.00;;;8.50;99.90;;;;;;5056984;28;20177;-48
2021/12/15 01:36:06;;;;;;;17.67;11.23;;;8.50;99.90;;;;;;5057036;28;20263;-48
2021/12/15 01:38:34;;;;;;;14.87;10.43;;;8.50;99.90;;;;;;5039017;28;20180;-48
2021/12/15 01:41:00;;;;;;;14.73;9.83;;;8.50;99.90;;;;;;5056702;28;20183;-46
2021/12/15 01:43:47;;;;;;;16.67;9.00;;;8.50;99.90;;;;;;5056766;28;20652;-47
2021/12/15 01:49:02;;;;;;;12.60;8.10;;;8.50;99.90;;;;;;5056688;28;20190;-47
2021/12/15 01:51:28;;;;;;;13.80;8.67;;;8.50;99.90;;;;;;5056947;28;20196;-47
2021/12/15 01:53:55;;;;;;;17.47;9.27;;;8.50;99.90;;;;;;5056664;28;20271;-47
2021/12/15 01:56:21;;;;;;;12.27;9.43;;;8.50;99.90;;;;;;5056419;28;20246;-48
2021/12/15 01:58:46;;;;;;;15.27;10.20;;;8.50;99.90;;;;;;5038651;28;20184;-47
2021/12/15 02:01:12;;;;;;;17.43;10.57;;;8.50;99.90;;;;;;5038770;28;20608;-45
2021/12/15 02:03:39;;;;;;;15.40;9.57;;;8.50;99.90;;;;;;5056253;28;20177;-48
2021/12/15 02:06:06;;;;;;;17.93;10.83;;;8.50;99.90;;;;;;5056231;28;20584;-48
2021/12/15 02:08:32;;;;;;;17.27;10.20;;;8.50;99.90;;;;;;5056220;28;20172;-47
2021/12/15 02:10:58;;;;;;;16.77;9.60;;;8.50;99.90;;;;;;5056044;28;20173;-47
2021/12/15 02:13:24;;;;;;;18.93;10.47;;;8.50;99.90;;;;;;5037406;28;20188;-49
2021/12/15 02:15:54;;;;;;;14.83;9.53;;;8.40;99.90;;;;;;5056066;28;20184;-47
2021/12/15 02:18:25;;;;;;;13.90;9.40;;;8.40;99.90;;;;;;5055901;28;20260;-47
2021/12/15 02:21:18;;;;;;;16.83;10.30;;;8.50;99.90;;;;;;5056120;28;20255;-46
2021/12/15 02:23:50;;;;;;;12.63;9.13;;;8.40;99.90;;;;;;5053493;28;20679;-47
2021/12/15 02:26:20;;;;;;;12.63;8.37;;;8.40;99.90;;;;;;5056077;28;20169;-47
2021/12/15 02:28:50;;;;;;;18.20;8.73;;;8.40;99.90;;;;;;5056058;28;20165;-47
2021/12/15 02:31:53;;;;;;;12.50;8.07;;;8.40;99.90;;;;;;5055699;28;20185;-49
2021/12/15 02:39:16;;;;;;;11.57;7.40;;;8.30;99.90;;;;;;5056129;28;20179;-48
2021/12/15 02:41:44;;;;;;;10.70;7.90;;;8.40;99.90;;;;;;5055446;28;20204;-47
2021/12/15 02:44:13;;;;;;;12.43;7.60;;;8.30;99.90;;;;;;5055289;28;20204;-46
2021/12/15 02:46:40;;;;;;;10.87;7.77;;;8.30;99.90;;;;;;5055219;28;20644;-46
2021/12/15 02:49:09;;;;;;;11.37;7.50;;;8.30;99.90;;;;;;5055583;28;20184;-47
2021/12/15 02:51:36;;;;;;;10.80;6.90;;;8.30;99.90;;;;;;5055501;28;20564;-46
2021/12/15 02:54:03;;;;;;;13.60;7.77;;;8.30;99.90;;;;;;5055521;28;20184;-48
2021/12/15 02:56:29;;;;;;;10.73;7.73;;;8.30;99.90;;;;;;5055246;28;20208;-47
2021/12/15 02:59:03;;;;;;;12.67;7.40;;;8.30;99.90;;;;;;5055409;28;20238;-48
2021/12/15 03:07:32;;;;;;;16.20;8.10;;;8.30;99.90;;;;;;5032256;28;20223;-49
2021/12/15 03:15:33;;;;;;;12.83;7.23;;;8.20;99.90;;;;;;5055030;28;20171;-47
2021/12/15 03:17:59;;;;;;;11.00;6.83;;;8.20;99.90;;;;;;5055052;28;20636;-48
2021/12/15 03:20:28;;;;;;;8.87;6.50;;;8.20;99.90;;;;;;5054756;28;20215;-48
2021/12/15 03:22:54;;;;;;;13.53;6.83;;;8.20;99.90;;;;;;5054182;28;20672;-49
2021/12/15 03:25:20;;;;;;;10.23;7.43;;;8.30;99.90;;;;;;5054167;28;20204;-49
2021/12/15 03:33:29;;;;;;;10.67;6.87;;;8.20;99.90;;;;;;5054977;28;20570;-42
2021/12/15 03:36:06;;;;;;;8.87;6.83;;;8.30;99.90;;;;;;5054695;28;20249;-45
2021/12/15 03:38:33;;;;;;;10.37;6.67;;;8.20;99.90;;;;;;5054720;28;20161;-43
2021/12/15 03:41:01;;;;;;;10.90;6.83;;;8.20;99.90;;;;;;5054488;28;20176;-44
2021/12/15 03:43:26;;;;;;;10.23;6.60;;;8.20;99.90;;;;;;5054174;28;20180;-44
2021/12/15 03:46:00;;;;;;;11.93;6.63;;;8.20;99.90;;;;;;5054221;28;20250;-42
2021/12/15 03:48:30;;;;;;;12.60;6.63;;;8.20;99.90;;;;;;5036475;28;20515;-43
2021/12/15 03:50:57;;;;;;;10.43;6.67;;;8.20;99.90;;;;;;5054501;28;20160;-43
2021/12/15 03:53:24;;;;;;;10.97;6.60;;;8.20;99.90;;;;;;5054040;28;20208;-42
2021/12/15 03:55:51;;;;;;;10.80;7.07;;;8.20;99.90;;;;;;5054045;28;20614;-41
2021/12/15 03:58:21;;;;;;;12.53;7.60;;;8.20;99.90;;;;;;5053960;28;20218;-45
2021/12/15 04:00:52;;;;;;;11.43;6.57;;;8.20;99.90;;;;;;5054096;28;20525;-43
2021/12/15 04:03:30;;;;;;;8.53;6.23;;;8.20;99.90;;;;;;5053837;28;20569;-43
2021/12/15 04:05:58;;;;;;;10.03;6.27;;;8.20;99.90;;;;;;5054087;28;20583;-42
2021/12/15 04:08:28;;;;;;;12.93;7.07;;;8.30;99.90;;;;;;5053765;28;20176;-44
2021/12/15 04:10:55;;;;;;;10.83;6.60;;;8.30;99.90;;;;;;5054293;28;20522;-43
2021/12/15 04:13:21;;;;;;;7.43;5.73;;;8.20;99.90;;;;;;5053636;28;20197;-42
2021/12/15 04:15:53;;;;;;;8.67;6.17;;;8.30;99.90;;;;;;5053958;28;20172;-42
2021/12/15 04:18:20;;;;;;;10.40;6.27;;;8.30;99.90;;;;;;5053666;28;20169;-44
2021/12/15 04:20:46;;;;;;;10.10;6.70;;;8.30;99.90;;;;;;5053897;28;20643;-42
2021/12/15 04:23:19;;;;;;;10.30;7.03;;;8.30;99.90;;;;;;5053500;28;20200;-41
2021/12/15 04:25:46;;;;;;;12.03;6.33;;;8.30;99.90;;;;;;5053470;28;20195;-40
2021/12/15 04:28:16;;;;;;;9.87;6.43;;;8.30;99.90;;;;;;5054013;28;20307;-42
2021/12/15 04:30:47;;;;;;;9.67;6.13;;;8.30;99.90;;;;;;5053554;28;20203;-42
2021/12/15 04:33:27;;;;;;;7.80;6.07;;;8.30;99.90;;;;;;5053402;28;20267;-44
2021/12/15 04:35:55;;;;;;;9.30;6.03;;;8.30;99.90;;;;;;5053345;28;20262;-43
2021/12/15 04:38:25;;;;;;;8.23;5.83;;;8.30;99.90;;;;;;5053357;28;20169;-42
2021/12/15 04:40:51;;;;;;;9.37;6.53;;;8.30;99.90;;;;;;5053332;28;20164;-43
2021/12/15 04:43:17;;;;;;;9.63;6.07;;;8.30;99.90;;;;;;5035361;28;20553;-42
2021/12/15 04:45:44;;;;;;;9.40;5.30;;;8.30;99.90;;;;;;5053193;28;20314;-45
2021/12/15 04:48:10;;;;;;;6.37;4.93;;;8.30;99.90;;;;;;5035397;28;20651;-43
2021/12/15 04:50:37;;;;;;;8.60;5.87;;;8.30;99.90;;;;;;5053191;28;20686;-42
2021/12/15 04:53:05;;;;;;;9.50;5.90;;;8.30;99.90;;;;;;5053368;28;20295;-43
2021/12/15 04:55:33;;;;;;;10.03;5.83;;;8.30;99.90;;;;;;5035283;28;20234;-44
2021/12/15 04:57:59;;;;;;;9.27;5.90;;;8.20;99.90;;;;;;5053105;28;20192;-43
2021/12/15 05:00:29;;;;;;;9.40;6.10;;;8.20;99.90;;;;;;5053313;28;20188;-44
2021/12/15 05:02:56;;;;;;;9.23;6.00;;;8.20;99.90;;;;;;5053277;28;20254;-43
2021/12/15 05:05:25;;;;;;;9.83;6.13;;;8.20;99.90;;;;;;5053005;28;20295;-43
2021/12/15 05:07:52;;;;;;;7.97;5.87;;;8.20;99.90;;;;;;5053008;28;20237;-43
2021/12/15 05:10:20;;;;;;;12.63;6.50;;;8.20;99.90;;;;;;5053152;28;20169;-43
2021/12/15 05:12:46;;;;;;;7.63;6.03;;;8.20;99.90;;;;;;5052909;28;20196;-41
2021/12/15 05:15:12;;;;;;;10.57;5.70;;;8.20;99.90;;;;;;5036120;28;20184;-45
2021/12/15 05:17:38;;;;;;;10.53;7.10;;;8.20;99.90;;;;;;5053207;28;20184;-46
2021/12/15 05:20:08;;;;;;;9.47;6.67;;;8.20;99.90;;;;;;5053282;28;20255;-43
2021/12/15 05:22:33;;;;;;;10.00;6.87;;;8.20;99.90;;;;;;5052863;28;20211;-44
2021/12/15 05:25:00;;;;;;;10.10;7.23;;;8.20;99.90;;;;;;5053160;28;20197;-44
2021/12/15 05:27:25;;;;;;;11.73;7.77;;;8.20;99.90;;;;;;5053160;28;20175;-43
2021/12/15 05:29:52;;;;;;;13.57;7.37;;;8.20;99.90;;;;;;5053113;28;20182;-44
2021/12/15 05:32:21;;;;;;;10.93;7.40;;;8.20;99.90;;;;;;5052850;28;20555;-42
2021/12/15 05:34:49;;;;;;;10.23;7.20;;;8.20;99.90;;;;;;5052806;28;20176;-41
2021/12/15 05:37:17;;;;;;;12.90;7.57;;;8.20;99.90;;;;;;5034966;28;20593;-43
2021/12/15 05:39:44;;;;;;;10.70;7.80;;;8.20;99.90;;;;;;5051624;28;20226;-43
2021/12/15 05:42:10;;;;;;;11.30;7.93;;;8.20;99.90;;;;;;5052858;28;20544;-42
2021/12/15 05:44:36;;;;;;;12.47;8.07;;;8.20;99.90;;;;;;5052667;28;20236;-43
2021/12/15 05:47:04;;;;;;;12.03;7.77;;;8.20;99.90;;;;;;5053454;28;20188;-43
2021/12/15 05:49:30;;;;;;;11.97;8.67;;;8.20;99.90;;;;;;5056431;28;20218;-44
2021/12/15 05:51:56;;;;;;;14.10;8.20;;;8.20;99.90;;;;;;5056424;28;20231;-44
2021/12/15 05:54:22;;;;;;;10.37;7.97;;;8.20;99.90;;;;;;5056955;28;20226;-43
2021/12/15 05:56:48;;;;;;;11.07;7.90;;;8.20;99.90;;;;;;5056973;28;20657;-42
2021/12/15 05:59:14;;;;;;;13.17;8.00;;;8.20;99.90;;;;;;5056637;28;20184;-42
2021/12/15 06:01:39;;;;;;;10.93;7.83;;;8.20;99.90;;;;;;5038535;28;20200;-45
2021/12/15 06:04:06;;;;;;;11.50;9.00;;;8.20;99.90;;;;;;5056109;28;20295;-44
2021/12/15 06:06:33;;;;;;;16.47;8.47;;;8.20;99.90;;;;;;5056381;28;20188;-43
2021/12/15 06:09:00;;;;;;;19.27;9.80;;;8.20;99.90;;;;;;5056428;28;20173;-45
2021/12/15 06:11:25;;;;;;;11.80;8.57;;;8.20;99.90;;;;;;5056560;28;20196;-42
2021/12/15 06:13:53;;;;;;;12.63;8.47;;;8.30;99.90;;;;;;5056489;28;20187;-44
2021/12/15 06:16:20;;;;;;;13.97;9.03;;;8.30;99.90;;;;;;5056086;28;20176;-41
2021/12/15 06:18:48;;;;;;;11.67;8.13;;;8.20;99.90;;;;;;5056077;28;20206;-41
2021/12/15 06:21:15;;;;;;;14.60;9.27;;;8.30;99.90;;;;;;5055824;28;20187;-42
2021/12/15 06:23:40;;;;;;;14.73;8.63;;;8.30;99.90;;;;;;5056044;28;20547;-42
2021/12/15 06:26:08;;;;;;;13.47;8.73;;;8.20;99.90;;;;;;5055920;28;20180;-45
2021/12/15 06:28:35;;;;;;;11.07;8.27;;;8.20;99.90;;;;;;5037850;28;20180;-42
2021/12/15 06:31:06;;;;;;;11.57;8.43;;;8.20;99.90;;;;;;5055787;28;20179;-41
2021/12/15 06:33:32;;;;;;;10.63;7.80;;;8.20;99.90;;;;;;5037943;28;20176;-45
2021/12/15 06:35:59;;;;;;;12.03;8.73;;;8.20;99.90;;;;;;5056213;28;20541;-41
2021/12/15 06:38:28;;;;;;;11.43;7.87;;;8.20;99.90;;;;;;5055644;28;20169;-42
2021/12/15 06:40:54;;;;;;;11.30;7.77;;;8.20;99.90;;;;;;5055527;28;20179;-44
2021/12/15 06:43:21;;;;;;;13.47;7.97;;;8.10;99.90;;;;;;5055439;28;20730;-41
2021/12/15 06:46:00;;;;;;;11.43;7.77;;;8.20;99.90;;;;;;5055288;28;20208;-41
2021/12/15 06:59:24;;;;;;;11.40;8.40;;;8.20;99.90;;;;;;5055586;28;20171;-43
2021/12/15 07:01:51;;;;;;;10.73;7.53;;;8.20;99.90;;;;;;5055036;28;20294;-41
2021/12/15 07:04:19;;;;;;;16.70;9.17;;;8.20;99.90;;;;;;5055031;28;20200;-41
2021/12/15 07:06:45;;;;;;;12.43;8.47;;;8.20;99.90;;;;;;5055040;28;20185;-41
2021/12/15 07:09:11;;;;;;;11.93;8.43;;;8.20;99.90;;;;;;5055027;28;20180;-44
2021/12/15 07:11:37;;;;;;;9.47;7.07;;;8.20;99.90;;;;;;5055384;28;20206;-40
2021/12/15 07:14:03;;;;;;;8.57;7.10;;;8.20;99.90;;;;;;5055157;28;20267;-44
2021/12/15 07:16:31;;;;;;;8.17;6.17;;;8.20;99.90;;;;;;5037054;28;20184;-43
2021/12/15 07:19:17;;;;;;;8.60;7.07;;;8.20;99.90;;;;;;5036904;28;20655;-41
2021/12/15 07:21:54;;;;;;;9.20;6.73;;;8.20;99.90;;;;;;5054905;28;20246;-41
2021/12/15 07:24:21;;;;;;;12.60;7.40;;;8.20;99.90;;;;;;5054929;28;20241;-43
2021/12/15 07:26:48;;;;;;;10.37;7.00;;;8.20;99.90;;;;;;5036734;28;20180;-41
2021/12/15 07:29:14;;;;;;;11.23;7.40;;;8.20;99.90;;;;;;5036837;28;20180;-43
2021/12/15 07:31:40;;;;;;;8.97;6.67;;;8.20;99.90;;;;;;5054444;28;20196;-40
2021/12/15 07:34:05;;;;;;;10.77;7.97;;;8.20;99.90;;;;;;5055089;28;20187;-44
2021/12/15 07:36:32;;;;;;;10.73;7.40;;;8.20;99.90;;;;;;5036570;28;20283;-44
2021/12/15 07:38:59;;;;;;;9.10;7.40;;;8.20;99.90;;;;;;5054382;28;20190;-43
2021/12/15 07:41:30;;;;;;;11.63;8.23;;;8.20;99.90;;;;;;5054459;28;20204;-43
2021/12/15 07:43:59;;;;;;;11.37;7.47;;;8.20;99.90;;;;;;5054166;28;20207;-42
2021/12/15 07:46:26;;;;;;;11.00;7.80;;;8.20;99.90;;;;;;5053915;28;20687;-42
2021/12/15 07:48:52;;;;;;;10.27;6.53;;;8.20;99.90;;;;;;5054185;28;20178;-43
2021/12/15 07:51:18;;;;;;;8.83;7.00;;;8.20;99.90;;;;;;5054332;28;20328;-44
2021/12/15 07:53:44;;;;;;;8.60;6.77;;;8.20;99.90;;;;;;5036288;28;20215;-41
2021/12/15 07:56:11;;;;;;;7.53;6.43;;;8.20;99.90;;;;;;5054171;28;20266;-41
2021/12/15 07:58:37;;;;;;;8.37;6.87;;;8.20;99.90;;;;;;5053932;28;20191;-45
2021/12/15 08:01:04;;;;;;;9.10;7.03;;;8.30;99.90;;;;;;5036149;28;20191;-45
2021/12/15 08:03:33;;;;;;;10.17;6.77;;;8.30;99.90;;;;;;5053963;28;20183;-43
2021/12/15 08:05:59;;;;;;;10.33;7.07;;;8.30;99.90;;;;;;5054002;28;20255;-42
2021/12/15 08:08:25;;;;;;;9.00;7.23;;;8.30;99.90;;;;;;5054176;28;20203;-45
2021/12/15 08:10:56;;;;;;;9.97;7.53;;;8.30;99.90;;;;;;5053201;28;20180;-42
2021/12/15 08:13:23;;;;;;;9.43;6.77;;;8.40;99.90;;;;;;5053646;28;20203;-42
2021/12/15 08:15:49;;;;;;;8.53;6.50;;;8.30;99.90;;;;;;5054091;28;20184;-44
2021/12/15 08:18:14;;;;;;;9.00;6.73;;;8.40;99.90;;;;;;5053983;28;20188;-45
2021/12/15 08:20:41;;;;;;;8.17;5.60;;;8.40;99.90;;;;;;5053939;28;20183;-44
2021/12/15 08:23:07;;;;;;;8.10;6.00;;;8.40;99.90;;;;;;5053574;28;20188;-41
2021/12/15 08:25:35;;;;;;;8.60;5.67;;;8.40;99.90;;;;;;5053494;28;20261;-44
2021/12/15 08:28:02;;;;;;;6.67;5.17;;;8.40;99.90;;;;;;5053635;28;20172;-42
2021/12/15 08:30:30;;;;;;;7.77;5.73;;;8.40;99.90;;;;;;5053793;28;20180;-44
2021/12/15 08:32:58;;;;;;;6.23;5.00;;;8.40;99.90;;;;;;5053588;28;20191;-44
2021/12/15 08:35:31;;;;;;;6.60;5.57;;;8.40;99.90;;;;;;5053507;28;20179;-43
2021/12/15 08:37:57;;;;;;;7.50;5.13;;;8.40;99.90;;;;;;5053739;28;20252;-43
2021/12/15 08:40:25;;;;;;;8.10;5.30;;;8.50;99.90;;;;;;5053705;28;20612;-42
2021/12/15 08:42:52;;;;;;;6.40;5.13;;;8.40;99.90;;;;;;5053533;28;20192;-42
2021/12/15 08:45:18;;;;;;;6.43;5.50;;;8.50;99.90;;;;;;5053679;28;20210;-42
2021/12/15 08:47:44;;;;;;;9.57;5.40;;;8.40;99.90;;;;;;5053696;28;20161;-41
2021/12/15 08:50:14;;;;;;;7.60;5.77;;;8.50;99.90;;;;;;5053294;28;20172;-44
2021/12/15 08:52:40;;;;;;;6.43;4.97;;;8.40;99.90;;;;;;5053837;28;20195;-42
2021/12/15 08:55:09;;;;;;;7.00;5.57;;;8.50;99.90;;;;;;5035888;28;20174;-44
2021/12/15 08:57:35;;;;;;;9.03;6.07;;;8.50;99.90;;;;;;5053480;28;20526;-42
2021/12/15 09:00:04;;;;;;;8.60;6.03;;;8.50;99.90;;;;;;5053220;28;20176;-42
2021/12/15 09:02:30;;;;;;;7.17;5.67;;;8.50;99.90;;;;;;5053369;28;20200;-40
2021/12/15 09:04:56;;;;;;;7.73;5.93;;;8.50;99.90;;;;;;5053275;28;20220;-43
2021/12/15 09:07:21;;;;;;;9.20;6.27;;;8.50;99.90;;;;;;5053389;28;20651;-42
2021/12/15 09:09:48;;;;;;;7.77;6.37;;;8.50;99.90;;;;;;5053389;28;20640;-41
2021/12/15 09:12:18;;;;;;;8.43;6.30;;;8.50;99.90;;;;;;5053067;28;20567;-40
2021/12/15 09:14:43;;;;;;;7.77;6.13;;;8.50;99.90;;;;;;5053822;28;20188;-43
2021/12/15 09:17:09;;;;;;;9.97;6.47;;;8.50;99.90;;;;;;5053105;28;20168;-44
2021/12/15 09:22:18;;;;;;;9.40;6.37;;;8.60;99.90;;;;;;4402449;26;20626;-50
2021/12/15 09:24:43;;;;;;;8.87;6.30;;;8.60;99.90;;;;;;5059147;28;20203;-51
2021/12/15 09:27:09;;;;;;;11.00;7.10;;;8.60;99.90;;;;;;5077055;28;20171;-49
2021/12/15 09:29:35;;;;;;;10.10;6.13;;;8.70;99.90;;;;;;5077301;28;20673;-49
2021/12/15 09:32:00;;;;;;;7.97;6.20;;;8.60;99.90;;;;;;5077004;28;20202;-48
2021/12/15 09:34:26;;;;;;;10.27;7.57;;;8.70;99.90;;;;;;5058985;28;20179;-47
2021/12/15 09:36:53;;;;;;;8.97;6.63;;;8.70;99.90;;;;;;5058830;28;20202;-51
2021/12/15 09:39:21;;;;;;;9.77;7.13;;;8.70;99.90;;;;;;5076933;28;20718;-50
2021/12/15 09:41:48;;;;;;;10.97;7.53;;;8.70;99.90;;;;;;5077064;28;20257;-49
2021/12/15 09:44:17;;;;;;;10.57;8.00;;;8.70;99.90;;;;;;5059133;28;20207;-49
2021/12/15 09:47:10;;;;;;;10.17;7.00;;;8.70;99.90;;;;;;5058649;28;20176;-49
2021/12/15 10:03:33;;;;;;;11.53;8.23;;;8.90;99.90;;;;;;5076625;28;20214;-48
2021/12/15 10:06:20;;;;;;;12.03;8.03;;;8.90;99.90;;;;;;5058442;28;20198;-49
2021/12/15 10:11:54;;;;;;;11.30;7.90;;;8.90;99.90;;;;;;5076271;28;20274;-45
2021/12/15 10:20:03;;;;;;;12.27;9.00;;;9.00;99.90;;;;;;5076764;28;20167;-45
2021/12/15 10:22:42;;;;;;;11.13;7.97;;;9.00;99.90;;;;;;5058167;28;20585;-46
2021/12/15 10:25:24;;;;;;;9.87;7.80;;;9.00;99.90;;;;;;5058253;28;20687;-45
2021/12/15 10:27:53;;;;;;;13.27;8.67;;;9.10;99.90;;;;;;5058319;28;20163;-46
2021/12/15 10:30:26;;;;;;;14.53;8.80;;;9.10;99.90;;;;;;5075764;28;20171;-47
2021/12/15 10:32:57;;;;;;;10.50;8.13;;;9.10;99.90;;;;;;5057105;28;20227;-46
2021/12/15 10:35:30;;;;;;;12.10;7.43;;;9.10;99.90;;;;;;5075831;28;20195;-46
2021/12/15 10:38:20;;;;;;;12.10;8.20;;;9.10;99.90;;;;;;5075680;28;20178;-45
2021/12/15 10:40:50;;;;;;;10.80;8.03;;;9.10;99.90;;;;;;5075683;28;20615;-46
2021/12/15 10:43:15;;;;;;;11.00;8.20;;;9.20;99.90;;;;;;5057622;28;20582;-45
2021/12/15 10:45:50;;;;;;;12.27;8.93;;;9.10;99.90;;;;;;5075462;28;20234;-46
2021/12/15 10:48:35;;;;;;;11.90;8.23;;;9.20;99.90;;;;;;5057739;28;20181;-47
2021/12/15 10:51:26;;;;;;;9.97;7.67;;;9.20;99.90;;;;;;5057371;28;20237;-47
2021/12/15 10:53:53;;;;;;;11.53;7.83;;;9.20;99.90;;;;;;5052811;28;20185;-46
2021/12/15 10:56:23;;;;;;;11.93;8.13;;;9.20;99.90;;;;;;5057423;28;20195;-45
2021/12/15 10:58:52;;;;;;;12.37;8.17;;;9.20;99.90;;;;;;5075525;28;20187;-46
2021/12/15 11:01:36;;;;;;;9.63;7.07;;;9.20;99.90;;;;;;5075153;28;20237;-45
2021/12/15 11:04:20;;;;;;;13.33;8.03;;;9.20;99.90;;;;;;5057222;28;20191;-46
2021/12/15 11:06:59;;;;;;;11.07;8.53;;;9.20;99.90;;;;;;5057204;28;20254;-47
2021/12/15 11:09:25;;;;;;;12.73;8.50;;;9.30;99.90;;;;;;5075111;28;20163;-45
2021/12/15 11:12:07;;;;;;;10.97;7.83;;;9.30;99.90;;;;;;5074911;28;20592;-44
2021/12/15 11:14:38;;;;;;;13.73;8.73;;;9.30;99.90;;;;;;5057051;28;20167;-46
2021/12/15 11:17:17;;;;;;;12.13;8.70;;;9.30;99.90;;;;;;5057297;28;20226;-46
2021/12/15 11:19:47;;;;;;;11.70;8.67;;;9.30;99.90;;;;;;5075167;28;20168;-45
2021/12/15 11:22:34;;;;;;;11.90;8.40;;;9.30;99.90;;;;;;5074824;28;20215;-45
2021/12/15 11:25:01;;;;;;;10.80;8.17;;;9.30;99.90;;;;;;5056676;28;20199;-48
2021/12/15 11:27:27;;;;;;;10.80;8.33;;;9.30;99.90;;;;;;5074696;28;20259;-48
2021/12/15 11:29:53;;;;;;;11.67;8.40;;;9.30;99.90;;;;;;5074939;28;20213;-50
2021/12/15 11:32:47;;;;;;;11.97;8.00;;;9.30;99.90;;;;;;5074426;28;20212;-50
2021/12/15 11:35:17;;;;;;;11.97;8.57;;;9.30;99.90;;;;;;5075092;28;20168;-45
2021/12/15 11:37:48;;;;;;;11.57;8.50;;;9.40;99.90;;;;;;5058080;28;20234;-52
2021/12/15 11:40:15;;;;;;;10.83;8.20;;;9.40;99.90;;;;;;5056508;28;20182;-49
2021/12/15 11:42:42;;;;;;;12.93;8.27;;;9.30;99.90;;;;;;5074385;28;20187;-50
2021/12/15 11:45:10;;;;;;;13.27;9.40;;;9.40;99.90;;;;;;5073780;28;20601;-50
2021/12/15 11:47:37;;;;;;;12.73;9.47;;;9.40;99.90;;;;;;5056996;28;20179;-48
2021/12/15 11:50:15;;;;;;;11.67;8.90;;;9.40;99.90;;;;;;5074252;28;20252;-49
2021/12/15 11:52:47;;;;;;;9.70;8.17;;;9.40;99.90;;;;;;5056188;28;20227;-50
2021/12/15 11:55:29;;;;;;;11.33;8.50;;;9.40;99.90;;;;;;5074104;28;20177;-50
2021/12/15 11:57:57;;;;;;;13.07;8.43;;;9.40;99.90;;;;;;5074320;28;20164;-51
2021/12/15 12:00:27;;;;;;;13.53;8.37;;;9.40;99.90;;;;;;5074042;28;20207;-50
2021/12/15 12:02:57;;;;;;;12.77;9.23;;;9.50;99.90;;;;;;5074133;28;20207;-50
2021/12/15 12:05:37;;;;;;;13.77;9.23;;;9.50;99.90;;;;;;5074234;28;20667;-49
2021/12/15 12:08:07;;;;;;;13.60;9.57;;;9.50;99.90;;;;;;5056008;28;20176;-50
2021/12/15 12:10:49;;;;;;;15.37;10.00;;;9.50;99.90;;;;;;5073846;28;20648;-52
2021/12/15 12:13:38;;;;;;;15.40;9.57;;;9.50;99.90;;;;;;5074523;28;20203;-48
2021/12/15 12:16:07;;;;;;;21.27;13.20;;;9.50;99.90;;;;;;5074117;28;20154;-49
2021/12/15 12:18:34;;;;;;;18.80;12.67;;;9.50;99.90;;;;;;5074176;28;20643;-49
2021/12/15 12:21:04;;;;;;;21.27;13.00;;;9.50;99.90;;;;;;5073627;28;20203;-49
2021/12/15 12:23:32;;;;;;;20.33;12.97;;;9.50;99.90;;;;;;5073584;28;20179;-48
2021/12/15 12:26:02;;;;;;;23.47;13.37;;;9.50;99.90;;;;;;5073575;28;20203;-52
2021/12/15 12:28:31;;;;;;;22.40;13.57;;;9.50;99.90;;;;;;5055690;28;20171;-48
2021/12/15 12:31:09;;;;;;;24.00;14.43;;;9.50;99.90;;;;;;5073514;28;20255;-48
2021/12/15 12:33:35;;;;;;;20.90;11.87;;;9.50;99.90;;;;;;5073748;28;20169;-49
2021/12/15 12:36:03;;;;;;;18.00;11.20;;;9.50;99.90;;;;;;5073329;28;20533;-49
2021/12/15 12:38:31;;;;;;;19.30;11.70;;;9.50;99.90;;;;;;5073712;28;20385;-47
2021/12/15 12:41:00;;;;;;;17.83;11.13;;;9.50;99.90;;;;;;5073377;28;20262;-44
2021/12/15 12:43:29;;;;;;;18.43;11.53;;;9.50;99.90;;;;;;5073475;28;20186;-45
2021/12/15 12:46:03;;;;;;;20.00;12.93;;;9.50;99.90;;;;;;5073504;28;20288;-47
2021/12/15 12:49:03;;;;;;;24.23;12.67;;;9.50;99.90;;;;;;5073673;28;20159;-44
2021/12/15 13:03:05;;;;;;;20.67;13.00;;;9.50;99.90;;;;;;5073262;28;20207;-46
2021/12/15 13:05:59;;;;;;;20.57;13.50;;;9.50;99.90;;;;;;5073424;28;20297;-46
2021/12/15 13:08:40;;;;;;;22.83;12.60;;;9.50;99.90;;;;;;5072964;28;20682;-47
2021/12/15 13:11:17;;;;;;;21.27;12.97;;;9.50;99.90;;;;;;5074195;28;20168;-46
2021/12/15 13:14:01;;;;;;;21.30;13.40;;;9.50;99.90;;;;;;5073207;28;20163;-46
2021/12/15 13:16:26;;;;;;;22.37;13.50;;;9.50;99.90;;;;;;5073278;28;20160;-45
2021/12/15 13:18:56;;;;;;;23.67;13.37;;;9.50;99.90;;;;;;5073178;28;20538;-45
2021/12/15 13:21:42;;;;;;;18.23;13.53;;;9.50;99.90;;;;;;5038761;28;20219;-46
2021/12/15 13:30:23;;;;;;;20.23;13.83;;;9.60;99.90;;;;;;5072998;28;20209;-44
2021/12/15 13:32:49;;;;;;;22.63;14.27;;;9.60;99.90;;;;;;5055264;28;20304;-45
2021/12/15 13:35:34;;;;;;;22.57;14.17;;;9.60;99.90;;;;;;5072994;28;20264;-44
2021/12/15 13:38:02;;;;;;;23.43;14.17;;;9.60;99.90;;;;;;5054964;28;20172;-46
2021/12/15 13:40:53;;;;;;;20.43;13.93;;;9.60;99.90;;;;;;5072838;28;20317;-45
2021/12/15 13:43:49;;;;;;;22.63;13.97;;;9.60;99.90;;;;;;5054818;28;20191;-46
2021/12/15 13:46:29;;;;;;;20.23;13.27;;;9.60;99.90;;;;;;5073061;28;20173;-45
2021/12/15 13:49:06;;;;;;;21.20;14.73;;;9.60;99.90;;;;;;5073222;28;20620;-46
2021/12/15 13:52:02;;;;;;;20.43;14.83;;;9.60;99.90;;;;;;5072736;28;20202;-51
2021/12/15 13:54:35;;;;;;;21.03;13.83;;;9.60;99.90;;;;;;5073305;28;20182;-50
2021/12/15 13:57:09;;;;;;;19.37;14.17;;;9.60;99.90;;;;;;5072718;28;20169;-49
2021/12/15 13:59:38;;;;;;;22.90;13.43;;;9.60;99.90;;;;;;5073288;28;20168;-49
2021/12/15 14:02:25;;;;;;;19.60;12.73;;;9.60;99.90;;;;;;5072467;28;20287;-50
2021/12/15 14:04:53;;;;;;;21.80;13.93;;;9.60;99.90;;;;;;5072601;28;20283;-49
2021/12/15 14:07:28;;;;;;;22.13;13.87;;;9.70;99.90;;;;;;5072628;28;20199;-51
2021/12/15 14:10:12;;;;;;;19.70;13.73;;;9.70;99.90;;;;;;5076369;28;20173;-49
2021/12/15 14:12:47;;;;;;;19.53;13.27;;;9.60;99.90;;;;;;5060026;28;20550;-49
2021/12/15 14:15:33;;;;;;;21.30;14.27;;;9.70;99.90;;;;;;5076321;28;20576;-49
2021/12/15 14:18:06;;;;;;;21.00;13.60;;;9.70;99.90;;;;;;5061804;28;20212;-50
2021/12/15 14:20:38;;;;;;;29.03;14.53;;;9.70;99.90;;;;;;5059221;28;20241;-49
2021/12/15 14:23:06;;;;;;;19.77;13.47;;;9.70;99.90;;;;;;5058057;28;20192;-49
2021/12/15 14:25:35;;;;;;;19.13;12.80;;;9.60;99.90;;;;;;5057787;28;20237;-50
2021/12/15 14:28:28;;;;;;;20.37;14.30;;;9.60;99.90;;;;;;5057902;28;20177;-49
2021/12/15 14:31:17;;;;;;;20.00;12.53;;;9.60;99.90;;;;;;5076035;28;20314;-50